Time;durP1;ratioP1;P1;durP2;ratioP2;P2;SDS_P1;SDS_P2;PMS_P1;PMS_P2;Temp;Humidity;BMP_temperature;BMP_pressure;BME280_temperature;BME280_humidity;BME280_pressure;Samples;Min_cycle;Max_cycle;Signal;HPM_P1;HPM_P2
2023/10/09 00:01:13;;;;;;;4.10;2.50;;;;;;;11.22;76.01;101554.31;5021956;28;20057;-58
2023/10/09 00:03:44;;;;;;;3.10;2.10;;;;;;;11.19;77.15;101533.34;5019039;28;20056;-57
2023/10/09 00:06:17;;;;;;;4.88;2.92;;;;;;;11.14;80.92;101520.41;5023490;28;20498;-57
2023/10/09 00:08:44;;;;;;;4.47;2.50;;;;;;;11.07;82.14;101516.31;5020795;28;20061;-52
2023/10/09 00:11:19;;;;;;;5.00;2.60;;;;;;;11.06;84.20;101517.25;5027001;28;20520;-53
2023/10/09 00:13:51;;;;;;;3.63;2.55;;;;;;;11.02;86.66;101515.69;5024874;28;20132;-57
2023/10/09 00:16:32;;;;;;;5.38;2.33;;;;;;;10.97;87.71;101511.56;5026763;28;20096;-53
2023/10/09 00:19:13;;;;;;;5.10;2.50;;;;;;;10.98;87.08;101518.53;5024087;28;20107;-58
2023/10/09 00:21:41;;;;;;;5.95;2.90;;;;;;;10.99;86.58;101515.00;5023387;28;20563;-55
2023/10/09 00:24:13;;;;;;;6.70;3.00;;;;;;;10.95;86.27;101509.00;5018638;28;20049;-57
2023/10/09 00:26:45;;;;;;;4.15;3.08;;;;;;;10.95;88.02;101495.84;5017776;28;20148;-59
2023/10/09 00:29:22;;;;;;;3.95;2.83;;;;;;;10.90;88.97;101489.94;5024732;28;20057;-58
2023/10/09 00:32:13;;;;;;;4.30;2.50;;;;;;;10.85;91.13;101487.53;5018494;28;20473;-60
2023/10/09 00:34:40;;;;;;;3.45;2.05;;;;;;;10.87;91.24;101484.81;5021340;28;20053;-56
2023/10/09 00:37:17;;;;;;;7.05;3.13;;;;;;;10.86;90.89;101491.00;5025393;28;20080;-51
2023/10/09 00:39:44;;;;;;;6.53;2.72;;;;;;;10.85;91.31;101481.38;5021608;28;20076;-51
2023/10/09 00:42:27;;;;;;;5.95;2.42;;;;;;;10.80;92.37;101467.56;5027320;28;20049;-52
2023/10/09 00:44:55;;;;;;;4.75;2.88;;;;;;;10.76;94.56;101466.00;5022536;28;20080;-49
2023/10/09 00:47:26;;;;;;;11.38;2.85;;;;;;;10.72;95.10;101460.03;5021014;28;20057;-50
2023/10/09 00:50:00;;;;;;;4.88;2.58;;;;;;;10.58;99.19;101460.66;5020466;28;20069;-55
2023/10/09 00:53:01;;;;;;;7.38;2.78;;;;;;;10.57;98.18;101458.94;5022224;28;20053;-55
2023/10/09 00:56:18;;;;;;;5.30;2.85;;;;;;;10.51;100.00;101456.59;5020677;28;20053;-55
2023/10/09 00:58:12;;;;;;;5.07;2.50;;;;;;;10.43;100.00;101442.06;5012544;28;20053;-49
2023/10/09 01:00:45;;;;;;;3.90;2.13;;;;;;;10.42;100.00;101441.22;5017849;28;20076;-56
2023/10/09 01:06:43;;;;;;;6.68;3.08;;;;;;;10.56;99.44;101435.31;5017870;28;20081;-56
2023/10/09 01:11:18;;;;;;;5.65;2.85;;;;;;;10.60;98.82;101434.25;5017836;28;20720;-54
2023/10/09 01:16:22;;;;;;;5.45;2.45;;;;;;;10.60;99.53;101407.94;5027938;28;20076;-53
2023/10/09 01:18:52;;;;;;;3.38;2.22;;;;;;;10.61;100.00;101405.22;5017016;28;20132;-55
2023/10/09 01:21:24;;;;;;;4.60;3.03;;;;;;;10.61;100.00;101402.59;5025456;28;20061;-53
2023/10/09 01:24:04;;;;;;;3.78;2.65;;;;;;;10.65;99.76;101405.94;5021261;28;20357;-54
2023/10/09 01:26:40;;;;;;;3.13;2.10;;;;;;;10.66;99.39;101391.84;5017222;28;20100;-56
2023/10/09 01:29:14;;;;;;;5.22;2.50;;;;;;;10.63;100.00;101381.47;5018164;28;20086;-51
2023/10/09 01:31:56;;;;;;;3.75;2.30;;;;;;;10.57;100.00;101374.69;5016320;28;20081;-59
2023/10/09 01:34:38;;;;;;;7.15;3.00;;;;;;;10.58;100.00;101370.28;5023684;28;20133;-57
2023/10/09 01:37:22;;;;;;;4.53;2.55;;;;;;;10.58;100.00;101346.56;5018432;28;20050;-54
2023/10/09 01:39:51;;;;;;;6.93;2.75;;;;;;;10.57;100.00;101343.09;5014427;28;20458;-56
2023/10/09 01:42:45;;;;;;;3.90;2.35;;;;;;;10.57;100.00;101324.66;5012469;28;20108;-56
2023/10/09 01:45:16;;;;;;;4.53;3.08;;;;;;;10.61;100.00;101309.56;5014859;28;20579;-57
2023/10/09 01:47:51;;;;;;;5.10;2.45;;;;;;;10.60;100.00;101305.25;5019499;28;20080;-54
2023/10/09 01:50:24;;;;;;;4.88;2.95;;;;;;;10.60;100.00;101298.19;5023171;28;20061;-56
2023/10/09 01:52:52;;;;;;;6.35;2.45;;;;;;;10.60;100.00;101278.91;5019342;28;20061;-52
2023/10/09 01:55:33;;;;;;;4.60;2.85;;;;;;;10.57;100.00;101279.06;5015035;28;20457;-58
2023/10/09 01:58:05;;;;;;;5.80;2.95;;;;;;;10.55;100.00;101281.78;5021965;28;20058;-55
2023/10/09 02:00:42;;;;;;;3.97;2.58;;;;;;;10.51;100.00;101287.25;5022030;28;20049;-56
2023/10/09 02:03:23;;;;;;;6.88;2.85;;;;;;;10.51;100.00;101282.84;5016124;28;20072;-53
2023/10/09 02:06:02;;;;;;;3.67;2.63;;;;;;;10.51;100.00;101287.25;5019824;28;20555;-61
2023/10/09 02:08:34;;;;;;;5.80;2.85;;;;;;;10.51;100.00;101268.84;5017852;28;20440;-53
2023/10/09 02:11:02;;;;;;;4.93;2.25;;;;;;;10.48;100.00;101261.91;5019901;28;20060;-55
2023/10/09 02:13:29;;;;;;;5.22;2.70;;;;;;;10.48;100.00;101272.44;5018658;28;20057;-57
2023/10/09 02:16:15;;;;;;;4.05;2.53;;;;;;;10.47;100.00;101267.28;5026099;28;20085;-53
2023/10/09 02:21:39;;;;;;;5.95;2.65;;;;;;;10.48;100.00;101274.22;5026677;28;20015;-56
2023/10/09 02:24:26;;;;;;;6.22;2.85;;;;;;;10.47;100.00;101285.69;5018680;28;20070;-55
2023/10/09 02:29:23;;;;;;;5.47;2.75;;;;;;;10.32;100.00;101269.72;5023016;28;20132;-55
2023/10/09 02:31:51;;;;;;;4.88;2.42;;;;;;;10.26;100.00;101266.50;5017561;28;20103;-54
2023/10/09 02:34:21;;;;;;;4.55;2.30;;;;;;;10.25;100.00;101267.44;5021893;28;20184;-55
2023/10/09 02:36:49;;;;;;;4.65;3.00;;;;;;;10.27;100.00;101276.13;5022435;28;20154;-55
2023/10/09 02:39:26;;;;;;;5.45;2.35;;;;;;;10.29;100.00;101280.38;5020896;28;20057;-52
2023/10/09 02:42:07;;;;;;;5.07;2.45;;;;;;;10.29;100.00;101283.00;5016678;28;20081;-55
2023/10/09 02:44:40;;;;;;;6.22;2.88;;;;;;;10.26;100.00;101285.78;5023889;28;20163;-56
2023/10/09 02:47:17;;;;;;;5.57;3.13;;;;;;;10.18;100.00;101273.88;5021591;28;20084;-56
2023/10/09 02:49:48;;;;;;;6.38;2.78;;;;;;;10.12;100.00;101262.72;5022974;28;20537;-57
2023/10/09 02:52:18;;;;;;;6.00;3.28;;;;;;;10.06;100.00;101241.97;5024246;28;20544;-58
2023/10/09 02:54:59;;;;;;;7.85;3.65;;;;;;;10.08;100.00;101242.72;5028341;28;20088;-57
2023/10/09 02:57:35;;;;;;;10.10;3.28;;;;;;;10.07;100.00;101230.50;5020701;28;20077;-53
2023/10/09 03:00:08;;;;;;;7.00;3.35;;;;;;;10.09;100.00;101230.47;5025320;28;20092;-53
2023/10/09 03:02:39;;;;;;;7.75;3.35;;;;;;;10.10;100.00;101227.75;5026851;28;20382;-53
2023/10/09 03:05:12;;;;;;;5.70;2.88;;;;;;;10.12;100.00;101225.88;5028824;28;20652;-53
2023/10/09 03:07:40;;;;;;;9.80;3.85;;;;;;;10.13;100.00;101229.34;5028453;28;20057;-58
2023/10/09 03:10:09;;;;;;;8.05;3.22;;;;;;;10.12;100.00;101220.63;5029070;28;20061;-57
2023/10/09 03:12:39;;;;;;;8.20;3.22;;;;;;;10.12;100.00;101214.50;5023582;28;20081;-54
2023/10/09 03:15:08;;;;;;;5.65;3.28;;;;;;;10.11;100.00;101203.13;5023566;28;20455;-56
2023/10/09 03:17:36;;;;;;;7.03;3.10;;;;;;;10.14;100.00;101202.16;5023744;28;20085;-55
2023/10/09 03:20:12;;;;;;;8.32;3.20;;;;;;;10.17;100.00;101196.72;5024005;28;20562;-52
2023/10/09 03:22:40;;;;;;;7.50;3.70;;;;;;;10.18;100.00;101177.41;5028730;28;20451;-58
2023/10/09 03:25:13;;;;;;;7.28;3.28;;;;;;;10.21;100.00;101171.13;5022837;28;20053;-58
2023/10/09 03:27:47;;;;;;;5.53;2.90;;;;;;;10.21;100.00;101168.47;5020703;28;20120;-52
2023/10/09 03:30:17;;;;;;;8.88;3.85;;;;;;;10.23;100.00;101161.38;5025566;28;20049;-57
2023/10/09 03:32:48;;;;;;;6.50;3.17;;;;;;;10.23;100.00;101153.50;5021716;28;20107;-57
2023/10/09 03:35:27;;;;;;;6.20;3.50;;;;;;;10.22;100.00;101155.28;5028236;28;20045;-56
2023/10/09 03:38:15;;;;;;;3.88;3.17;;;;;;;10.22;100.00;101138.59;5021058;28;20140;-56
2023/10/09 03:40:43;;;;;;;5.93;3.45;;;;;;;10.22;100.00;101131.59;5022696;28;20089;-54
2023/10/09 03:43:11;;;;;;;4.78;3.63;;;;;;;10.23;100.00;101132.44;5013466;28;20088;-51
2023/10/09 03:45:45;;;;;;;4.05;2.70;;;;;;;10.25;100.00;101122.72;5027143;28;20092;-55
2023/10/09 03:48:20;;;;;;;4.60;2.75;;;;;;;10.23;100.00;101114.88;5024399;28;20096;-59
2023/10/09 03:50:48;;;;;;;7.38;3.40;;;;;;;10.24;100.00;101098.19;5022409;28;20065;-57
2023/10/09 03:53:16;;;;;;;8.05;3.20;;;;;;;10.23;100.00;101092.97;5020898;28;20061;-50
2023/10/09 03:55:43;;;;;;;5.55;2.95;;;;;;;10.22;100.00;101088.63;5022074;28;20089;-55
2023/10/09 03:58:15;;;;;;;6.18;3.70;;;;;;;10.21;100.00;101085.13;5019452;28;20076;-53
2023/10/09 04:00:45;;;;;;;9.48;4.25;;;;;;;10.25;100.00;101099.03;5024181;28;20081;-54
2023/10/09 04:03:14;;;;;;;8.05;3.53;;;;;;;10.26;100.00;101104.19;5022504;28;20156;-56
2023/10/09 04:05:45;;;;;;;7.28;3.63;;;;;;;10.23;100.00;101103.50;5019432;28;20054;-56
2023/10/09 04:08:28;;;;;;;9.27;3.33;;;;;;;10.21;100.00;101108.81;5026481;28;20091;-57
2023/10/09 04:11:16;;;;;;;10.88;3.47;;;;;;;10.20;100.00;101128.16;5022407;28;20103;-58
2023/10/09 04:13:46;;;;;;;6.90;3.50;;;;;;;10.15;100.00;101145.97;5020622;28;20391;-55
2023/10/09 04:19:11;;;;;;;5.63;3.47;;;;;;;10.13;100.00;101140.78;5013889;28;20045;-57
2023/10/09 04:21:41;;;;;;;12.98;3.92;;;;;;;10.13;100.00;101138.16;5021832;28;20099;-55
2023/10/09 04:26:44;;;;;;;6.00;3.33;;;;;;;10.07;100.00;101120.03;5017278;28;20084;-57
2023/10/09 04:29:49;;;;;;;6.38;3.38;;;;;;;10.05;100.00;101100.84;5019949;28;20131;-52
2023/10/09 04:32:07;;;;;;;6.18;3.60;;;;;;;10.04;100.00;101101.78;5017499;28;20685;-55
2023/10/09 04:34:34;;;;;;;5.25;3.50;;;;;;;10.01;100.00;101078.25;5022565;28;20095;-56
2023/10/09 04:39:47;;;;;;;8.15;4.07;;;;;;;10.00;100.00;101109.91;5022050;28;20111;-56
2023/10/09 04:47:38;;;;;;;8.57;3.28;;;;;;;9.99;100.00;101111.66;5019869;28;20087;-56
2023/10/09 04:50:36;;;;;;;6.60;3.95;;;;;;;9.96;100.00;101108.34;5019215;28;20038;-55
2023/10/09 04:52:53;;;;;;;6.60;3.75;;;;;;;9.97;100.00;101108.25;5017488;28;20161;-58
2023/10/09 04:55:24;;;;;;;5.28;3.75;;;;;;;9.93;100.00;101104.06;5013442;28;20042;-57
2023/10/09 04:58:01;;;;;;;5.72;3.28;;;;;;;9.92;100.00;101102.38;5020205;28;20084;-56
2023/10/09 05:03:09;;;;;;;5.57;3.65;;;;;;;9.94;100.00;101091.75;5013236;28;20096;-53
2023/10/09 05:16:26;;;;;;;5.80;3.25;;;;;;;9.92;100.00;101077.84;5022158;28;20107;-56
2023/10/09 05:19:08;;;;;;;5.22;3.35;;;;;;;9.90;100.00;101072.66;5022905;28;20111;-56
2023/10/09 05:21:44;;;;;;;5.20;3.65;;;;;;;9.91;100.00;101077.00;5024048;28;20530;-52
2023/10/09 05:32:15;;;;;;;6.63;3.58;;;;;;;9.93;100.00;101074.28;5020995;28;20073;-55
2023/10/09 05:37:32;;;;;;;7.57;3.95;;;;;;;9.95;100.00;101069.78;5024524;28;20080;-58
2023/10/09 05:42:44;;;;;;;6.22;4.13;;;;;;;9.94;100.00;101070.72;5015264;28;20103;-54
2023/10/09 05:47:53;;;;;;;5.88;3.42;;;;;;;9.89;100.00;101069.16;5021453;28;20053;-57
2023/10/09 06:06:18;;;;;;;5.85;3.92;;;;;;;9.92;100.00;101073.44;5023925;28;20111;-53
2023/10/09 06:17:22;;;;;;;5.63;3.80;;;;;;;9.98;100.00;101073.13;5004872;28;20154;-62
2023/10/09 06:19:49;;;;;;;5.63;3.85;;;;;;;9.98;100.00;101067.88;5008370;28;20265;-64
2023/10/09 06:25:09;;;;;;;7.18;3.35;;;;;;;10.03;100.00;101054.50;5015087;28;20045;-62
2023/10/09 06:33:18;;;;;;;7.18;3.50;;;;;;;10.15;100.00;101070.50;5004275;28;20100;-62
2023/10/09 06:35:56;;;;;;;6.28;3.75;;;;;;;10.23;100.00;101051.72;5002828;28;20354;-60
2023/10/09 06:38:33;;;;;;;5.75;3.55;;;;;;;10.29;100.00;101054.06;5007779;28;20459;-65
2023/10/09 06:43:36;;;;;;;5.72;3.55;;;;;;;10.47;100.00;101051.44;5007724;28;20103;-64
2023/10/09 06:46:43;;;;;;;6.40;3.42;;;;;;;10.52;100.00;101057.28;5007726;28;20042;-64
2023/10/09 06:49:33;;;;;;;6.40;3.28;;;;;;;10.55;100.00;101054.50;5007622;28;20057;-64
2023/10/09 06:52:13;;;;;;;4.35;2.70;;;;;;;10.56;100.00;101045.69;5001028;28;20526;-64
2023/10/09 06:54:49;;;;;;;6.57;3.55;;;;;;;10.58;100.00;101042.06;5006968;28;20080;-65
2023/10/09 06:57:43;;;;;;;5.95;3.45;;;;;;;10.58;100.00;101041.16;5004915;28;20100;-65
2023/10/09 07:02:53;;;;;;;9.20;3.25;;;;;;;10.75;100.00;101037.66;5003167;28;20126;-63
2023/10/09 07:05:20;;;;;;;5.40;3.20;;;;;;;10.85;100.00;101025.69;5019079;28;20236;-65
2023/10/09 07:07:54;;;;;;;14.63;3.70;;;;;;;10.85;100.00;101028.31;5005946;28;20045;-64
2023/10/09 07:10:28;;;;;;;8.63;3.90;;;;;;;10.85;100.00;101033.59;5005434;28;20073;-62
2023/10/09 07:12:57;;;;;;;5.60;3.67;;;;;;;10.97;100.00;101032.09;5019289;28;20319;-61
2023/10/09 07:16:23;;;;;;;5.55;3.88;;;;;;;11.08;100.00;101041.13;5007827;28;20119;-66
2023/10/09 07:18:49;;;;;;;13.38;5.13;;;;;;;11.20;100.00;101038.75;5005541;28;20255;-64
2023/10/09 07:21:18;;;;;;;6.60;4.80;;;;;;;11.30;100.00;101034.66;5018053;28;20045;-63
2023/10/09 07:23:48;;;;;;;8.38;4.70;;;;;;;11.37;100.00;101028.13;5020159;28;20116;-64
2023/10/09 07:26:23;;;;;;;7.13;4.00;;;;;;;11.39;100.00;101031.50;5006362;28;20132;-64
2023/10/09 07:29:00;;;;;;;6.18;3.67;;;;;;;11.44;100.00;101031.25;5020332;28;20046;-63
2023/10/09 07:31:29;;;;;;;8.25;3.85;;;;;;;11.48;100.00;101027.50;5002988;28;21801;-61
2023/10/09 07:33:57;;;;;;;7.95;4.13;;;;;;;11.47;100.00;101036.38;5023227;28;20056;-63
2023/10/09 07:36:37;;;;;;;10.40;3.92;;;;;;;11.47;100.00;101037.22;5007180;28;20072;-61
2023/10/09 07:39:16;;;;;;;4.60;3.20;;;;;;;11.50;100.00;101044.13;5008966;28;20082;-61
2023/10/09 07:41:55;;;;;;;5.07;3.42;;;;;;;11.51;100.00;101038.75;5010592;28;20046;-62
2023/10/09 07:44:36;;;;;;;6.55;3.63;;;;;;;11.54;100.00;101032.47;5009241;28;20092;-63
2023/10/09 07:47:17;;;;;;;7.22;3.60;;;;;;;11.57;100.00;101042.81;5010509;28;20122;-60
2023/10/09 07:49:53;;;;;;;7.63;3.88;;;;;;;11.60;100.00;101047.94;5008743;28;20046;-61
2023/10/09 07:52:21;;;;;;;3.90;2.42;;;;;;;11.64;100.00;101049.47;5006397;28;20104;-63
2023/10/09 07:54:49;;;;;;;4.22;2.60;;;;;;;11.68;100.00;101053.63;5010208;28;20050;-62
2023/10/09 07:57:17;;;;;;;8.20;3.15;;;;;;;11.71;100.00;101042.91;5009857;28;20073;-62
2023/10/09 08:00:11;;;;;;;6.35;3.30;;;;;;;11.75;100.00;101049.72;5009495;28;20523;-62
2023/10/09 08:02:39;;;;;;;4.80;3.20;;;;;;;11.70;100.00;101064.91;5009423;28;20495;-63
2023/10/09 08:05:18;;;;;;;9.00;3.55;;;;;;;11.65;100.00;101067.81;5002948;28;20045;-62
2023/10/09 08:07:57;;;;;;;8.70;3.03;;;;;;;11.58;100.00;101082.31;5005218;28;20050;-63
2023/10/09 08:16:20;;;;;;;6.70;3.05;;;;;;;11.77;100.00;101092.66;4996688;28;20459;-62
2023/10/09 08:18:51;;;;;;;7.22;4.03;;;;;;;11.85;100.00;101094.91;5009863;28;20618;-62
2023/10/09 08:21:41;;;;;;;10.50;3.90;;;;;;;11.85;100.00;101097.56;5010608;28;20081;-62
2023/10/09 08:24:35;;;;;;;7.50;3.58;;;;;;;11.88;100.00;101094.72;5007202;28;20179;-62
2023/10/09 08:29:47;;;;;;;;;;;;;;;11.72;100.00;101093.88;5008295;28;20049;-63
2023/10/09 08:32:38;;;;;;;7.72;4.40;;;;;;;11.82;100.00;101088.00;5007442;28;19940;-63
2023/10/09 08:35:30;;;;;;;6.97;3.47;;;;;;;11.85;100.00;101087.00;5002427;28;20127;-63
2023/10/09 08:38:07;;;;;;;8.85;4.13;;;;;;;11.85;100.00;101087.84;4997283;28;20069;-63
2023/10/09 08:40:38;;;;;;;9.00;4.45;;;;;;;11.84;100.00;101087.91;5006345;28;20120;-60
2023/10/09 08:43:17;;;;;;;6.32;3.50;;;;;;;11.79;100.00;101079.38;5008366;28;20073;-62
2023/10/09 08:45:47;;;;;;;9.77;3.63;;;;;;;11.87;100.00;101083.31;5007758;28;20050;-62
2023/10/09 08:48:15;;;;;;;7.18;3.42;;;;;;;11.96;100.00;101095.13;5009848;28;20092;-62
2023/10/09 08:50:45;;;;;;;8.82;3.40;;;;;;;12.00;100.00;101091.38;5008759;28;20064;-65
2023/10/09 08:53:13;;;;;;;6.93;3.10;;;;;;;12.01;100.00;101089.59;5010427;28;20054;-62
2023/10/09 08:55:41;;;;;;;5.78;2.90;;;;;;;11.92;100.00;101083.06;5008555;28;20100;-63
2023/10/09 08:58:20;;;;;;;6.20;3.42;;;;;;;11.94;100.00;101078.56;5008492;28;20046;-64
2023/10/09 09:00:48;;;;;;;6.90;3.80;;;;;;;11.96;100.00;101075.81;5000755;28;20444;-60
2023/10/09 09:03:18;;;;;;;4.85;3.20;;;;;;;11.90;100.00;101072.59;5004382;28;20784;-63
2023/10/09 09:05:51;;;;;;;4.68;3.40;;;;;;;11.94;100.00;101067.16;5003861;28;20050;-64
2023/10/09 09:08:28;;;;;;;3.60;3.30;;;;;;;11.98;100.00;101064.25;5000413;28;20081;-61
2023/10/09 09:11:11;;;;;;;4.47;3.30;;;;;;;11.94;100.00;101072.44;5003864;28;20119;-65
2023/10/09 09:14:06;;;;;;;9.05;3.33;;;;;;;11.95;100.00;101068.84;5002608;28;20456;-64
2023/10/09 09:16:36;;;;;;;5.80;3.67;;;;;;;12.04;100.00;101063.88;5004513;28;20139;-63
2023/10/09 09:21:45;;;;;;;9.05;4.03;;;;;;;12.07;100.00;101052.31;5005291;28;20057;-64
2023/10/09 09:26:58;;;;;;;7.65;3.92;;;;;;;12.31;100.00;101055.28;5021124;28;19932;-65
2023/10/09 09:29:38;;;;;;;7.22;3.90;;;;;;;12.29;100.00;101060.69;5008117;28;20056;-64
2023/10/09 09:32:17;;;;;;;7.03;4.00;;;;;;;12.27;98.88;101049.34;5005984;28;20046;-64
2023/10/09 09:34:56;;;;;;;7.18;3.10;;;;;;;12.44;98.33;101053.63;5004704;28;20112;-63
2023/10/09 09:37:31;;;;;;;5.07;3.45;;;;;;;12.58;98.06;101053.63;5006103;28;20053;-64
2023/10/09 09:40:01;;;;;;;12.88;3.90;;;;;;;12.66;97.95;101056.66;4986999;28;20050;-64
2023/10/09 09:42:32;;;;;;;4.88;3.60;;;;;;;12.73;97.57;101062.41;5007521;28;20068;-62
2023/10/09 09:45:03;;;;;;;7.45;3.85;;;;;;;12.76;97.34;101071.97;5002805;28;20058;-63
2023/10/09 09:47:35;;;;;;;8.55;4.28;;;;;;;12.74;97.10;101066.75;5006199;28;20144;-65
2023/10/09 09:50:11;;;;;;;6.40;4.30;;;;;;;12.64;96.67;101078.81;5008132;28;20050;-62
2023/10/09 09:52:39;;;;;;;6.90;4.07;;;;;;;12.38;96.18;101083.00;5006920;28;20475;-63
2023/10/09 09:55:17;;;;;;;6.10;3.63;;;;;;;12.25;98.02;101080.28;5007495;28;20480;-62
2023/10/09 09:57:45;;;;;;;6.10;3.97;;;;;;;12.24;98.32;101081.19;5006011;28;20519;-64
2023/10/09 10:00:29;;;;;;;5.20;3.63;;;;;;;12.31;98.84;101085.19;5015025;28;20596;-64
2023/10/09 10:03:05;;;;;;;8.65;4.10;;;;;;;12.35;98.41;101077.94;5003034;28;20053;-64
2023/10/09 10:05:33;;;;;;;6.05;4.00;;;;;;;12.34;98.10;101073.59;5007210;28;20066;-64
2023/10/09 10:08:04;;;;;;;6.82;3.88;;;;;;;12.35;98.11;101072.66;5022641;28;20504;-65
2023/10/09 10:10:47;;;;;;;5.57;3.78;;;;;;;12.26;97.00;101079.31;5022182;28;20538;-61
2023/10/09 10:13:28;;;;;;;6.93;4.00;;;;;;;12.16;97.40;101076.38;5008160;28;20081;-64
2023/10/09 10:15:56;;;;;;;4.97;3.35;;;;;;;12.18;97.88;101065.72;5008515;28;20542;-64
2023/10/09 10:18:24;;;;;;;7.57;3.80;;;;;;;12.21;97.18;101075.25;5007648;28;20479;-64
2023/10/09 10:21:14;;;;;;;4.90;3.72;;;;;;;12.02;98.37;101068.41;5022871;28;20622;-63
2023/10/09 10:23:47;;;;;;;5.25;3.50;;;;;;;12.11;98.17;101067.00;5007418;28;20045;-64
2023/10/09 10:26:29;;;;;;;8.60;3.95;;;;;;;12.14;98.98;101065.03;5005702;28;20131;-65
2023/10/09 10:29:34;;;;;;;5.80;3.90;;;;;;;12.23;97.80;101063.66;5021601;28;20130;-65
2023/10/09 10:32:10;;;;;;;8.82;4.00;;;;;;;12.26;97.24;101060.84;4933428;29;20072;-65
2023/10/09 10:34:55;;;;;;;5.50;3.53;;;;;;;12.30;96.76;101057.09;4998254;28;20100;-64
2023/10/09 10:37:44;;;;;;;5.00;3.07;;;;;;;12.34;97.19;101053.34;5009300;28;20061;-64
2023/10/09 10:40:37;;;;;;;6.07;4.03;;;;;;;12.34;97.33;101053.34;5005814;28;20053;-65
2023/10/09 10:43:31;;;;;;;8.02;4.18;;;;;;;12.42;97.21;101055.50;5008476;28;20447;-64
2023/10/09 10:48:59;;;;;;;5.60;3.17;;;;;;;12.20;97.42;101050.63;5005819;28;20472;-63
2023/10/09 10:51:37;;;;;;;5.47;3.55;;;;;;;12.12;97.46;101059.03;5008462;28;20058;-63
2023/10/09 10:56:51;;;;;;;5.13;3.30;;;;;;;12.21;97.63;101056.78;5005149;28;20480;-65
2023/10/09 10:59:26;;;;;;;6.55;3.75;;;;;;;12.35;97.92;101054.19;5005637;28;20153;-64
2023/10/09 11:02:22;;;;;;;8.30;4.53;;;;;;;12.48;96.95;101052.50;5007024;28;20053;-64
2023/10/09 11:04:53;;;;;;;6.15;3.70;;;;;;;12.50;95.07;101047.13;5007579;28;20108;-64
2023/10/09 11:07:27;;;;;;;6.75;3.30;;;;;;;12.57;95.62;101049.31;4998089;28;20062;-64
2023/10/09 11:12:39;;;;;;;5.20;3.47;;;;;;;12.96;92.88;101046.94;5010279;28;20058;-63
2023/10/09 11:17:59;;;;;;;5.72;3.55;;;;;;;13.20;91.33;101045.44;5008035;28;20054;-63
2023/10/09 11:20:32;;;;;;;4.90;3.58;;;;;;;13.35;90.37;101041.81;5004212;28;20161;-63
2023/10/09 11:25:50;;;;;;;4.70;3.28;;;;;;;13.11;90.57;101031.00;5009185;28;20128;-64
2023/10/09 11:31:07;;;;;;;6.53;3.92;;;;;;;12.91;91.80;101026.09;5010496;28;20535;-65
2023/10/09 11:33:48;;;;;;;4.60;3.33;;;;;;;12.97;91.81;101019.56;5009626;28;20574;-62
2023/10/09 11:36:31;;;;;;;5.05;3.53;;;;;;;13.09;91.24;101013.50;5010916;28;20503;-65
2023/10/09 11:42:07;;;;;;;6.63;4.28;;;;;;;13.17;90.51;101014.72;4968497;28;20077;-61
2023/10/09 11:44:39;;;;;;;7.32;4.82;;;;;;;13.35;90.44;101017.19;4998995;28;20145;-65
2023/10/09 11:52:37;;;;;;;5.35;3.97;;;;;;;14.18;85.19;101002.84;5010336;28;20068;-64
2023/10/09 11:55:14;;;;;;;;;;;;;;;14.47;83.97;101007.94;5007884;28;20057;-63
2023/10/09 11:57:42;;;;;;;9.02;4.28;;;;;;;14.75;82.08;101000.72;5011143;28;19975;-63
2023/10/09 12:03:05;;;;;;;6.65;3.80;;;;;;;14.41;82.27;100993.31;5000278;28;20364;-64
2023/10/09 12:05:33;;;;;;;6.25;4.10;;;;;;;14.53;82.40;100988.97;5010715;28;20575;-64
2023/10/09 12:08:02;;;;;;;7.53;4.30;;;;;;;14.53;81.64;100991.63;5011605;28;20405;-64
2023/10/09 12:10:30;;;;;;;7.10;4.28;;;;;;;14.47;81.74;100988.53;5007319;28;20062;-64
2023/10/09 12:12:58;;;;;;;6.50;4.30;;;;;;;13.99;83.66;100989.13;5021373;28;20504;-64
2023/10/09 12:15:36;;;;;;;8.85;4.90;;;;;;;13.71;85.54;101000.72;5010566;28;20361;-64
2023/10/09 12:18:14;;;;;;;8.65;4.70;;;;;;;14.00;86.06;100993.47;5009389;28;20053;-64
2023/10/09 12:20:49;;;;;;;8.70;4.70;;;;;;;16.58;81.28;100996.88;5008186;28;20049;-64
2023/10/09 12:23:19;;;;;;;5.57;4.38;;;;;;;17.38;72.68;100999.34;5007160;28;20093;-62
2023/10/09 12:25:50;;;;;;;9.13;4.53;;;;;;;16.86;70.02;101001.75;5010060;28;20053;-62
2023/10/09 12:28:21;;;;;;;6.03;4.30;;;;;;;16.14;71.55;101001.16;5007570;28;20072;-63
2023/10/09 12:30:52;;;;;;;4.07;3.67;;;;;;;15.40;74.71;101003.97;5006941;28;20140;-62
2023/10/09 12:33:21;;;;;;;7.90;4.80;;;;;;;15.09;76.57;100999.19;5007204;28;20034;-63
2023/10/09 12:35:48;;;;;;;7.28;4.25;;;;;;;14.46;79.18;101006.25;5009404;28;20104;-61
2023/10/09 12:38:18;;;;;;;5.78;3.55;;;;;;;14.29;80.59;101004.75;5010199;28;20088;-62
2023/10/09 12:40:50;;;;;;;7.55;4.88;;;;;;;14.11;81.51;100998.06;5006903;28;20088;-66
2023/10/09 12:43:19;;;;;;;7.05;4.85;;;;;;;13.85;82.93;100997.16;5009121;28;20542;-64
2023/10/09 12:45:49;;;;;;;9.30;4.40;;;;;;;13.62;85.46;100998.66;5009075;28;20093;-65
2023/10/09 12:48:17;;;;;;;11.70;5.43;;;;;;;13.35;87.82;100999.53;5010560;28;20500;-62
2023/10/09 12:50:44;;;;;;;6.53;5.65;;;;;;;13.09;89.68;100997.66;5008204;28;20046;-65
2023/10/09 12:53:17;;;;;;;8.18;6.55;;;;;;;12.91;89.96;100987.28;5009559;28;20531;-62
2023/10/09 12:55:45;;;;;;;9.30;5.80;;;;;;;12.73;91.75;100995.53;5007330;28;20072;-64
2023/10/09 12:58:15;;;;;;;13.50;6.50;;;;;;;12.65;92.47;100994.22;5007956;28;20479;-64
2023/10/09 13:00:44;;;;;;;8.02;6.05;;;;;;;12.49;93.93;100997.91;5009733;28;20050;-65
2023/10/09 13:03:18;;;;;;;8.00;6.40;;;;;;;12.41;94.57;100998.34;5005360;28;20050;-62
2023/10/09 13:05:57;;;;;;;8.48;6.75;;;;;;;12.41;94.69;101004.47;5008617;28;20081;-63
2023/10/09 13:08:31;;;;;;;10.32;6.28;;;;;;;12.35;96.08;100998.72;5008016;28;20082;-62
2023/10/09 13:11:16;;;;;;;7.60;6.30;;;;;;;12.40;95.40;100992.22;5031079;22;20534;-62
2023/10/09 13:13:50;;;;;;;8.75;6.38;;;;;;;12.44;94.93;100990.25;5022638;28;20049;-60
2023/10/09 13:16:24;;;;;;;8.13;6.85;;;;;;;12.45;94.94;100984.03;5021228;28;20728;-63
2023/10/09 13:18:54;;;;;;;8.85;6.68;;;;;;;12.36;95.65;100980.16;5026248;28;20089;-63
2023/10/09 13:21:22;;;;;;;8.82;7.68;;;;;;;12.41;95.57;100991.28;5009311;28;20081;-62
2023/10/09 13:23:50;;;;;;;9.05;7.25;;;;;;;12.41;95.62;100995.72;5011487;28;20507;-62
2023/10/09 13:26:18;;;;;;;8.93;7.65;;;;;;;12.25;96.09;100989.66;5022563;28;20588;-62
2023/10/09 13:28:49;;;;;;;8.25;6.38;;;;;;;12.32;95.72;101004.19;5025563;28;20069;-62
2023/10/09 13:31:17;;;;;;;10.45;7.57;;;;;;;12.26;96.30;101015.13;5009191;28;20084;-62
2023/10/09 13:33:45;;;;;;;10.57;7.68;;;;;;;12.23;96.52;101005.59;5021892;28;20145;-63
2023/10/09 13:36:17;;;;;;;9.40;7.15;;;;;;;12.21;97.16;101006.63;4993884;28;20534;-62
2023/10/09 13:38:47;;;;;;;9.23;7.22;;;;;;;12.24;96.91;101003.78;5025107;28;20073;-61
2023/10/09 13:41:17;;;;;;;10.30;7.57;;;;;;;12.26;97.08;100999.28;5022404;28;21571;-62
2023/10/09 13:43:45;;;;;;;9.05;6.75;;;;;;;12.13;97.73;101002.66;5025984;28;20318;-63
2023/10/09 13:46:12;;;;;;;8.38;7.25;;;;;;;12.07;97.91;101012.72;5009527;28;20053;-62
2023/10/09 13:48:41;;;;;;;9.10;6.35;;;;;;;12.14;97.88;101009.63;5023198;28;20049;-63
2023/10/09 13:51:13;;;;;;;9.45;6.32;;;;;;;12.13;97.72;101010.56;5023193;28;20092;-63
2023/10/09 13:53:44;;;;;;;8.45;6.60;;;;;;;12.13;98.07;101013.22;5025315;28;20061;-63
2023/10/09 13:56:20;;;;;;;10.75;7.35;;;;;;;12.06;98.08;101005.72;5009012;28;20141;-62
2023/10/09 13:58:50;;;;;;;8.70;7.72;;;;;;;12.05;99.02;100999.59;5026348;28;20030;-62
2023/10/09 14:01:27;;;;;;;13.35;7.45;;;;;;;12.01;99.20;100990.16;5023918;28;20374;-63
2023/10/09 14:03:56;;;;;;;8.00;7.20;;;;;;;11.91;100.00;100989.88;5023149;28;20107;-62
2023/10/09 14:06:30;;;;;;;11.10;9.05;;;;;;;11.82;100.00;100985.13;5025034;28;20073;-63
2023/10/09 14:09:10;;;;;;;9.15;7.55;;;;;;;11.72;100.00;100991.84;5026775;28;20189;-63
2023/10/09 14:11:44;;;;;;;11.10;7.28;;;;;;;11.76;100.00;100998.66;5021312;28;20099;-63